sensor_id;sensor_type;location;lat;lon;timestamp;P1;durP1;ratioP1;P2;durP2;ratioP2
42760;SDS011;31672;47.638;19.026;2023-04-20T00:01:40;11.63;;;7.33;;
42760;SDS011;31672;47.638;19.026;2023-04-20T00:06:43;12.13;;;7.43;;
42760;SDS011;31672;47.638;19.026;2023-04-20T00:11:46;9.83;;;7.10;;
42760;SDS011;31672;47.638;19.026;2023-04-20T00:16:49;9.67;;;6.93;;
42760;SDS011;31672;47.638;19.026;2023-04-20T00:21:53;7.90;;;5.10;;
42760;SDS011;31672;47.638;19.026;2023-04-20T00:26:56;10.17;;;5.80;;
42760;SDS011;31672;47.638;19.026;2023-04-20T00:31:59;12.43;;;6.70;;
42760;SDS011;31672;47.638;19.026;2023-04-20T00:37:02;8.77;;;6.17;;
42760;SDS011;31672;47.638;19.026;2023-04-20T00:42:05;10.93;;;7.27;;
42760;SDS011;31672;47.638;19.026;2023-04-20T00:47:10;9.93;;;6.73;;
42760;SDS011;31672;47.638;19.026;2023-04-20T00:52:13;11.17;;;7.53;;
42760;SDS011;31672;47.638;19.026;2023-04-20T00:57:17;8.93;;;6.60;;
42760;SDS011;31672;47.638;19.026;2023-04-20T01:02:25;11.57;;;7.03;;
42760;SDS011;31672;47.638;19.026;2023-04-20T01:07:29;9.97;;;7.07;;
42760;SDS011;31672;47.638;19.026;2023-04-20T01:12:32;9.30;;;6.67;;
42760;SDS011;31672;47.638;19.026;2023-04-20T01:17:35;12.30;;;7.37;;
42760;SDS011;31672;47.638;19.026;2023-04-20T01:22:43;12.37;;;8.53;;
42760;SDS011;31672;47.638;19.026;2023-04-20T01:27:47;11.00;;;6.63;;
42760;SDS011;31672;47.638;19.026;2023-04-20T01:32:50;11.20;;;8.27;;
42760;SDS011;31672;47.638;19.026;2023-04-20T01:37:53;10.00;;;7.00;;
42760;SDS011;31672;47.638;19.026;2023-04-20T01:42:56;11.03;;;7.63;;
42760;SDS011;31672;47.638;19.026;2023-04-20T01:47:59;9.13;;;6.27;;
42760;SDS011;31672;47.638;19.026;2023-04-20T01:53:03;9.10;;;5.30;;
42760;SDS011;31672;47.638;19.026;2023-04-20T01:58:06;9.20;;;6.07;;
42760;SDS011;31672;47.638;19.026;2023-04-20T02:03:09;9.83;;;6.43;;
42760;SDS011;31672;47.638;19.026;2023-04-20T02:08:12;9.50;;;7.03;;
42760;SDS011;31672;47.638;19.026;2023-04-20T02:13:15;12.30;;;7.40;;
42760;SDS011;31672;47.638;19.026;2023-04-20T02:18:18;11.20;;;5.30;;
42760;SDS011;31672;47.638;19.026;2023-04-20T02:23:21;9.47;;;5.43;;
42760;SDS011;31672;47.638;19.026;2023-04-20T02:28:24;9.07;;;6.03;;
42760;SDS011;31672;47.638;19.026;2023-04-20T02:33:28;9.97;;;6.47;;
42760;SDS011;31672;47.638;19.026;2023-04-20T02:38:32;7.93;;;5.37;;
42760;SDS011;31672;47.638;19.026;2023-04-20T02:43:35;7.83;;;5.13;;
42760;SDS011;31672;47.638;19.026;2023-04-20T02:48:38;9.70;;;6.40;;
42760;SDS011;31672;47.638;19.026;2023-04-20T02:53:41;11.07;;;7.83;;
42760;SDS011;31672;47.638;19.026;2023-04-20T02:58:44;10.77;;;6.27;;
42760;SDS011;31672;47.638;19.026;2023-04-20T03:03:49;11.00;;;7.47;;
42760;SDS011;31672;47.638;19.026;2023-04-20T03:08:53;9.53;;;6.27;;
42760;SDS011;31672;47.638;19.026;2023-04-20T03:13:56;9.27;;;6.73;;
42760;SDS011;31672;47.638;19.026;2023-04-20T03:18:59;13.93;;;9.73;;
42760;SDS011;31672;47.638;19.026;2023-04-20T03:24:02;16.63;;;12.07;;
42760;SDS011;31672;47.638;19.026;2023-04-20T03:29:05;14.00;;;9.57;;
42760;SDS011;31672;47.638;19.026;2023-04-20T03:34:08;13.10;;;8.53;;
42760;SDS011;31672;47.638;19.026;2023-04-20T03:39:12;33.93;;;20.67;;
42760;SDS011;31672;47.638;19.026;2023-04-20T03:44:14;29.57;;;18.83;;
42760;SDS011;31672;47.638;19.026;2023-04-20T03:49:21;33.47;;;22.13;;
42760;SDS011;31672;47.638;19.026;2023-04-20T03:54:29;27.65;;;19.00;;
42760;SDS011;31672;47.638;19.026;2023-04-20T03:59:32;21.40;;;13.33;;
42760;SDS011;31672;47.638;19.026;2023-04-20T04:04:35;17.73;;;12.43;;
42760;SDS011;31672;47.638;19.026;2023-04-20T04:09:38;15.83;;;10.03;;
42760;SDS011;31672;47.638;19.026;2023-04-20T04:14:41;16.57;;;9.90;;
42760;SDS011;31672;47.638;19.026;2023-04-20T04:19:44;31.83;;;15.87;;
42760;SDS011;31672;47.638;19.026;2023-04-20T04:24:47;27.40;;;15.83;;
42760;SDS011;31672;47.638;19.026;2023-04-20T04:29:50;28.80;;;13.40;;
42760;SDS011;31672;47.638;19.026;2023-04-20T04:34:53;22.67;;;9.33;;
42760;SDS011;31672;47.638;19.026;2023-04-20T04:39:56;21.00;;;10.97;;
42760;SDS011;31672;47.638;19.026;2023-04-20T04:45:00;15.97;;;9.03;;
42760;SDS011;31672;47.638;19.026;2023-04-20T04:50:06;15.63;;;9.27;;
42760;SDS011;31672;47.638;19.026;2023-04-20T04:55:10;10.30;;;6.80;;
42760;SDS011;31672;47.638;19.026;2023-04-20T05:00:16;14.27;;;6.67;;
42760;SDS011;31672;47.638;19.026;2023-04-20T05:05:20;6.97;;;5.20;;
42760;SDS011;31672;47.638;19.026;2023-04-20T05:10:23;7.60;;;5.47;;
42760;SDS011;31672;47.638;19.026;2023-04-20T05:15:26;8.73;;;4.93;;
42760;SDS011;31672;47.638;19.026;2023-04-20T05:20:29;9.97;;;4.67;;
42760;SDS011;31672;47.638;19.026;2023-04-20T05:25:32;11.43;;;5.90;;
42760;SDS011;31672;47.638;19.026;2023-04-20T05:30:35;7.37;;;4.77;;
42760;SDS011;31672;47.638;19.026;2023-04-20T05:35:38;8.20;;;4.37;;
42760;SDS011;31672;47.638;19.026;2023-04-20T05:40:42;6.20;;;4.00;;
42760;SDS011;31672;47.638;19.026;2023-04-20T05:45:45;6.27;;;4.30;;
42760;SDS011;31672;47.638;19.026;2023-04-20T05:50:50;5.20;;;4.20;;
42760;SDS011;31672;47.638;19.026;2023-04-20T05:55:53;7.77;;;5.47;;
42760;SDS011;31672;47.638;19.026;2023-04-20T06:00:56;12.43;;;6.17;;
42760;SDS011;31672;47.638;19.026;2023-04-20T06:05:59;13.93;;;7.00;;
42760;SDS011;31672;47.638;19.026;2023-04-20T06:11:02;11.47;;;7.27;;
42760;SDS011;31672;47.638;19.026;2023-04-20T06:16:05;11.37;;;6.57;;
42760;SDS011;31672;47.638;19.026;2023-04-20T06:21:11;17.77;;;7.47;;
42760;SDS011;31672;47.638;19.026;2023-04-20T06:26:14;12.80;;;6.93;;
42760;SDS011;31672;47.638;19.026;2023-04-20T06:31:17;12.90;;;6.20;;
42760;SDS011;31672;47.638;19.026;2023-04-20T06:36:22;11.83;;;5.10;;
42760;SDS011;31672;47.638;19.026;2023-04-20T06:41:25;6.87;;;5.10;;
42760;SDS011;31672;47.638;19.026;2023-04-20T06:46:28;8.67;;;5.50;;
42760;SDS011;31672;47.638;19.026;2023-04-20T06:51:31;7.47;;;5.13;;
42760;SDS011;31672;47.638;19.026;2023-04-20T06:56:35;7.37;;;4.37;;
42760;SDS011;31672;47.638;19.026;2023-04-20T07:01:38;8.50;;;5.40;;
42760;SDS011;31672;47.638;19.026;2023-04-20T07:06:41;6.97;;;5.37;;
42760;SDS011;31672;47.638;19.026;2023-04-20T07:11:44;10.40;;;4.87;;
42760;SDS011;31672;47.638;19.026;2023-04-20T07:16:50;7.13;;;5.40;;
42760;SDS011;31672;47.638;19.026;2023-04-20T07:21:55;7.77;;;5.70;;
42760;SDS011;31672;47.638;19.026;2023-04-20T07:26:58;6.63;;;4.80;;
42760;SDS011;31672;47.638;19.026;2023-04-20T07:32:00;7.22;;;4.57;;
42760;SDS011;31672;47.638;19.026;2023-04-20T07:37:04;7.10;;;4.82;;
42760;SDS011;31672;47.638;19.026;2023-04-20T07:42:07;7.88;;;4.18;;
42760;SDS011;31672;47.638;19.026;2023-04-20T07:47:10;5.63;;;4.00;;
42760;SDS011;31672;47.638;19.026;2023-04-20T07:52:13;6.35;;;3.95;;
42760;SDS011;31672;47.638;19.026;2023-04-20T07:57:19;5.82;;;3.92;;
42760;SDS011;31672;47.638;19.026;2023-04-20T08:02:22;5.55;;;3.75;;
42760;SDS011;31672;47.638;19.026;2023-04-20T08:07:25;5.72;;;4.15;;
42760;SDS011;31672;47.638;19.026;2023-04-20T08:12:29;6.25;;;4.68;;
42760;SDS011;31672;47.638;19.026;2023-04-20T08:17:32;7.57;;;3.88;;
42760;SDS011;31672;47.638;19.026;2023-04-20T08:22:36;5.22;;;3.97;;
42760;SDS011;31672;47.638;19.026;2023-04-20T08:27:40;5.20;;;4.00;;
42760;SDS011;31672;47.638;19.026;2023-04-20T08:32:43;5.38;;;3.80;;
42760;SDS011;31672;47.638;19.026;2023-04-20T08:37:47;5.13;;;3.80;;
42760;SDS011;31672;47.638;19.026;2023-04-20T08:42:51;5.05;;;3.47;;
42760;SDS011;31672;47.638;19.026;2023-04-20T08:47:54;6.18;;;3.92;;
42760;SDS011;31672;47.638;19.026;2023-04-20T08:53:00;6.47;;;3.42;;
42760;SDS011;31672;47.638;19.026;2023-04-20T08:58:04;3.60;;;2.78;;
42760;SDS011;31672;47.638;19.026;2023-04-20T09:03:07;4.55;;;3.10;;
42760;SDS011;31672;47.638;19.026;2023-04-20T09:08:10;4.07;;;2.70;;
42760;SDS011;31672;47.638;19.026;2023-04-20T09:13:20;3.25;;;2.58;;
42760;SDS011;31672;47.638;19.026;2023-04-20T09:18:24;5.72;;;2.90;;
42760;SDS011;31672;47.638;19.026;2023-04-20T09:23:27;4.15;;;2.50;;
42760;SDS011;31672;47.638;19.026;2023-04-20T09:28:36;3.38;;;2.70;;
42760;SDS011;31672;47.638;19.026;2023-04-20T09:33:40;3.42;;;2.60;;
42760;SDS011;31672;47.638;19.026;2023-04-20T09:38:43;5.32;;;2.40;;
42760;SDS011;31672;47.638;19.026;2023-04-20T09:43:46;3.28;;;2.42;;
42760;SDS011;31672;47.638;19.026;2023-04-20T09:48:49;6.35;;;2.50;;
42760;SDS011;31672;47.638;19.026;2023-04-20T09:53:56;4.22;;;2.47;;
42760;SDS011;31672;47.638;19.026;2023-04-20T09:59:02;3.80;;;2.35;;
42760;SDS011;31672;47.638;19.026;2023-04-20T10:04:06;3.67;;;2.20;;
42760;SDS011;31672;47.638;19.026;2023-04-20T10:09:19;5.05;;;2.47;;
42760;SDS011;31672;47.638;19.026;2023-04-20T10:14:27;3.10;;;2.35;;
42760;SDS011;31672;47.638;19.026;2023-04-20T10:19:36;4.75;;;3.05;;
42760;SDS011;31672;47.638;19.026;2023-04-20T10:24:44;3.58;;;2.58;;
42760;SDS011;31672;47.638;19.026;2023-04-20T10:29:48;3.45;;;2.53;;
42760;SDS011;31672;47.638;19.026;2023-04-20T10:35:04;3.88;;;2.70;;
42760;SDS011;31672;47.638;19.026;2023-04-20T10:40:10;3.72;;;2.58;;
42760;SDS011;31672;47.638;19.026;2023-04-20T10:45:14;7.07;;;2.72;;
42760;SDS011;31672;47.638;19.026;2023-04-20T10:50:17;5.53;;;3.00;;
42760;SDS011;31672;47.638;19.026;2023-04-20T10:55:21;3.78;;;2.53;;
42760;SDS011;31672;47.638;19.026;2023-04-20T11:00:27;3.53;;;2.60;;
42760;SDS011;31672;47.638;19.026;2023-04-20T11:05:31;3.35;;;2.60;;
42760;SDS011;31672;47.638;19.026;2023-04-20T11:10:38;3.97;;;2.47;;
42760;SDS011;31672;47.638;19.026;2023-04-20T11:15:43;3.65;;;2.30;;
42760;SDS011;31672;47.638;19.026;2023-04-20T11:20:50;5.38;;;2.65;;
42760;SDS011;31672;47.638;19.026;2023-04-20T11:25:55;3.17;;;2.33;;
42760;SDS011;31672;47.638;19.026;2023-04-20T11:30:58;3.67;;;2.35;;
42760;SDS011;31672;47.638;19.026;2023-04-20T11:36:02;4.18;;;2.50;;
42760;SDS011;31672;47.638;19.026;2023-04-20T11:41:05;3.00;;;2.17;;
42760;SDS011;31672;47.638;19.026;2023-04-20T11:46:13;4.07;;;2.10;;
42760;SDS011;31672;47.638;19.026;2023-04-20T11:51:21;4.00;;;2.17;;
42760;SDS011;31672;47.638;19.026;2023-04-20T11:56:24;3.00;;;2.33;;
42760;SDS011;31672;47.638;19.026;2023-04-20T12:01:27;3.03;;;2.05;;
42760;SDS011;31672;47.638;19.026;2023-04-20T12:06:31;2.28;;;1.63;;
42760;SDS011;31672;47.638;19.026;2023-04-20T12:11:34;2.35;;;2.00;;
42760;SDS011;31672;47.638;19.026;2023-04-20T12:16:37;2.88;;;1.80;;
42760;SDS011;31672;47.638;19.026;2023-04-20T12:21:40;3.50;;;2.30;;
42760;SDS011;31672;47.638;19.026;2023-04-20T12:26:43;3.05;;;2.20;;
42760;SDS011;31672;47.638;19.026;2023-04-20T12:31:47;2.70;;;1.80;;
42760;SDS011;31672;47.638;19.026;2023-04-20T12:36:50;3.72;;;2.13;;
42760;SDS011;31672;47.638;19.026;2023-04-20T12:41:53;3.10;;;2.20;;
42760;SDS011;31672;47.638;19.026;2023-04-20T12:46:56;2.83;;;1.90;;
42760;SDS011;31672;47.638;19.026;2023-04-20T12:51:59;3.03;;;2.05;;
42760;SDS011;31672;47.638;19.026;2023-04-20T12:57:02;3.08;;;1.65;;
42760;SDS011;31672;47.638;19.026;2023-04-20T13:02:06;3.00;;;1.77;;
42760;SDS011;31672;47.638;19.026;2023-04-20T13:07:09;1.90;;;1.67;;
42760;SDS011;31672;47.638;19.026;2023-04-20T13:12:13;3.42;;;1.83;;
42760;SDS011;31672;47.638;19.026;2023-04-20T13:17:16;4.07;;;1.73;;
42760;SDS011;31672;47.638;19.026;2023-04-20T13:22:19;3.03;;;1.80;;
42760;SDS011;31672;47.638;19.026;2023-04-20T13:27:23;3.38;;;1.73;;
42760;SDS011;31672;47.638;19.026;2023-04-20T13:32:26;2.80;;;1.60;;
42760;SDS011;31672;47.638;19.026;2023-04-20T13:37:30;3.17;;;1.58;;
42760;SDS011;31672;47.638;19.026;2023-04-20T13:42:34;2.45;;;1.58;;
42760;SDS011;31672;47.638;19.026;2023-04-20T13:47:38;1.98;;;1.65;;
42760;SDS011;31672;47.638;19.026;2023-04-20T13:52:41;3.05;;;1.90;;
42760;SDS011;31672;47.638;19.026;2023-04-20T13:57:45;2.47;;;1.30;;
42760;SDS011;31672;47.638;19.026;2023-04-20T14:02:48;1.77;;;1.40;;
42760;SDS011;31672;47.638;19.026;2023-04-20T14:07:51;1.77;;;1.50;;
42760;SDS011;31672;47.638;19.026;2023-04-20T14:12:54;1.75;;;1.48;;
42760;SDS011;31672;47.638;19.026;2023-04-20T14:17:57;2.47;;;1.50;;
42760;SDS011;31672;47.638;19.026;2023-04-20T14:23:01;3.63;;;1.70;;
42760;SDS011;31672;47.638;19.026;2023-04-20T14:28:04;2.85;;;1.60;;
42760;SDS011;31672;47.638;19.026;2023-04-20T14:33:08;2.72;;;1.40;;
42760;SDS011;31672;47.638;19.026;2023-04-20T14:38:10;2.90;;;1.65;;
42760;SDS011;31672;47.638;19.026;2023-04-20T14:43:14;2.17;;;1.40;;
42760;SDS011;31672;47.638;19.026;2023-04-20T14:48:17;1.60;;;1.30;;
42760;SDS011;31672;47.638;19.026;2023-04-20T14:53:20;3.05;;;1.25;;
42760;SDS011;31672;47.638;19.026;2023-04-20T14:58:23;2.75;;;1.65;;
42760;SDS011;31672;47.638;19.026;2023-04-20T15:03:26;1.92;;;1.15;;
42760;SDS011;31672;47.638;19.026;2023-04-20T15:08:30;3.40;;;1.38;;
42760;SDS011;31672;47.638;19.026;2023-04-20T15:13:33;2.72;;;1.58;;
42760;SDS011;31672;47.638;19.026;2023-04-20T15:18:36;1.65;;;1.38;;
42760;SDS011;31672;47.638;19.026;2023-04-20T15:23:39;2.63;;;1.42;;
42760;SDS011;31672;47.638;19.026;2023-04-20T15:28:42;2.15;;;1.45;;
42760;SDS011;31672;47.638;19.026;2023-04-20T15:33:46;2.20;;;1.50;;
42760;SDS011;31672;47.638;19.026;2023-04-20T15:38:50;2.38;;;1.30;;
42760;SDS011;31672;47.638;19.026;2023-04-20T15:43:57;2.22;;;1.35;;
42760;SDS011;31672;47.638;19.026;2023-04-20T15:49:00;2.38;;;1.27;;
42760;SDS011;31672;47.638;19.026;2023-04-20T15:54:03;3.85;;;1.83;;
42760;SDS011;31672;47.638;19.026;2023-04-20T15:59:07;2.97;;;1.85;;
42760;SDS011;31672;47.638;19.026;2023-04-20T16:04:10;4.85;;;2.80;;
42760;SDS011;31672;47.638;19.026;2023-04-20T16:09:13;4.75;;;3.17;;
42760;SDS011;31672;47.638;19.026;2023-04-20T16:14:16;9.02;;;4.85;;
42760;SDS011;31672;47.638;19.026;2023-04-20T16:19:20;6.70;;;3.38;;
42760;SDS011;31672;47.638;19.026;2023-04-20T16:24:23;5.25;;;3.13;;
42760;SDS011;31672;47.638;19.026;2023-04-20T16:29:27;5.20;;;2.38;;
42760;SDS011;31672;47.638;19.026;2023-04-20T16:34:30;3.08;;;2.22;;
42760;SDS011;31672;47.638;19.026;2023-04-20T16:39:33;3.83;;;2.25;;
42760;SDS011;31672;47.638;19.026;2023-04-20T16:44:37;6.32;;;2.20;;
42760;SDS011;31672;47.638;19.026;2023-04-20T16:49:43;3.22;;;1.80;;
42760;SDS011;31672;47.638;19.026;2023-04-20T16:54:46;4.05;;;1.70;;
42760;SDS011;31672;47.638;19.026;2023-04-20T16:59:49;7.38;;;2.30;;
42760;SDS011;31672;47.638;19.026;2023-04-20T17:04:52;11.40;;;5.60;;
42760;SDS011;31672;47.638;19.026;2023-04-20T17:09:55;5.95;;;3.30;;
42760;SDS011;31672;47.638;19.026;2023-04-20T17:14:58;10.02;;;6.15;;
42760;SDS011;31672;47.638;19.026;2023-04-20T17:20:02;6.13;;;2.50;;
42760;SDS011;31672;47.638;19.026;2023-04-20T17:25:08;2.33;;;1.40;;
42760;SDS011;31672;47.638;19.026;2023-04-20T17:30:11;8.13;;;5.63;;
42760;SDS011;31672;47.638;19.026;2023-04-20T17:35:15;10.38;;;8.20;;
42760;SDS011;31672;47.638;19.026;2023-04-20T17:40:19;8.75;;;5.38;;
42760;SDS011;31672;47.638;19.026;2023-04-20T17:45:22;4.85;;;2.45;;
42760;SDS011;31672;47.638;19.026;2023-04-20T17:50:25;5.00;;;2.55;;
42760;SDS011;31672;47.638;19.026;2023-04-20T17:55:28;5.28;;;2.90;;
42760;SDS011;31672;47.638;19.026;2023-04-20T18:00:31;5.13;;;3.37;;
42760;SDS011;31672;47.638;19.026;2023-04-20T18:05:34;7.80;;;5.28;;
42760;SDS011;31672;47.638;19.026;2023-04-20T18:10:38;6.60;;;4.20;;
42760;SDS011;31672;47.638;19.026;2023-04-20T18:15:41;9.48;;;6.13;;
42760;SDS011;31672;47.638;19.026;2023-04-20T18:20:44;7.68;;;5.32;;
42760;SDS011;31672;47.638;19.026;2023-04-20T18:25:49;19.13;;;8.65;;
42760;SDS011;31672;47.638;19.026;2023-04-20T18:30:54;16.02;;;7.30;;
42760;SDS011;31672;47.638;19.026;2023-04-20T18:36:00;6.72;;;4.05;;
42760;SDS011;31672;47.638;19.026;2023-04-20T18:41:03;6.97;;;3.83;;
42760;SDS011;31672;47.638;19.026;2023-04-20T18:46:07;4.18;;;2.55;;
42760;SDS011;31672;47.638;19.026;2023-04-20T18:51:10;4.97;;;3.10;;
42760;SDS011;31672;47.638;19.026;2023-04-20T18:56:13;7.10;;;2.80;;
42760;SDS011;31672;47.638;19.026;2023-04-20T19:01:16;4.73;;;2.90;;
42760;SDS011;31672;47.638;19.026;2023-04-20T19:06:19;7.30;;;3.97;;
42760;SDS011;31672;47.638;19.026;2023-04-20T19:11:25;7.33;;;3.80;;
42760;SDS011;31672;47.638;19.026;2023-04-20T19:16:30;7.13;;;3.65;;
42760;SDS011;31672;47.638;19.026;2023-04-20T19:21:34;5.35;;;3.47;;
42760;SDS011;31672;47.638;19.026;2023-04-20T19:26:37;7.00;;;3.33;;
42760;SDS011;31672;47.638;19.026;2023-04-20T19:31:41;7.00;;;2.83;;
42760;SDS011;31672;47.638;19.026;2023-04-20T19:36:44;4.80;;;2.80;;
42760;SDS011;31672;47.638;19.026;2023-04-20T19:41:47;9.37;;;5.50;;
42760;SDS011;31672;47.638;19.026;2023-04-20T19:46:50;9.33;;;6.27;;
42760;SDS011;31672;47.638;19.026;2023-04-20T19:51:53;9.37;;;5.87;;
42760;SDS011;31672;47.638;19.026;2023-04-20T19:56:56;10.47;;;6.47;;
42760;SDS011;31672;47.638;19.026;2023-04-20T20:01:59;10.60;;;5.80;;
42760;SDS011;31672;47.638;19.026;2023-04-20T20:07:02;9.33;;;5.27;;
42760;SDS011;31672;47.638;19.026;2023-04-20T20:12:05;7.37;;;4.33;;
42760;SDS011;31672;47.638;19.026;2023-04-20T20:17:11;4.40;;;3.63;;
42760;SDS011;31672;47.638;19.026;2023-04-20T20:22:16;5.20;;;3.20;;
42760;SDS011;31672;47.638;19.026;2023-04-20T20:27:20;4.60;;;2.30;;
42760;SDS011;31672;47.638;19.026;2023-04-20T20:32:23;5.47;;;2.80;;
42760;SDS011;31672;47.638;19.026;2023-04-20T20:37:27;4.77;;;2.57;;
42760;SDS011;31672;47.638;19.026;2023-04-20T20:42:36;5.90;;;2.93;;
42760;SDS011;31672;47.638;19.026;2023-04-20T20:47:41;5.00;;;2.50;;
42760;SDS011;31672;47.638;19.026;2023-04-20T20:52:46;4.47;;;2.20;;
42760;SDS011;31672;47.638;19.026;2023-04-20T20:57:50;5.73;;;3.67;;
42760;SDS011;31672;47.638;19.026;2023-04-20T21:02:53;7.00;;;3.93;;
42760;SDS011;31672;47.638;19.026;2023-04-20T21:07:56;8.03;;;2.73;;
42760;SDS011;31672;47.638;19.026;2023-04-20T21:12:59;4.13;;;2.73;;
42760;SDS011;31672;47.638;19.026;2023-04-20T21:18:02;7.23;;;3.00;;
42760;SDS011;31672;47.638;19.026;2023-04-20T21:23:05;6.40;;;3.40;;
42760;SDS011;31672;47.638;19.026;2023-04-20T21:28:08;5.67;;;3.70;;
42760;SDS011;31672;47.638;19.026;2023-04-20T21:33:11;8.00;;;3.80;;
42760;SDS011;31672;47.638;19.026;2023-04-20T21:38:14;4.97;;;3.03;;
42760;SDS011;31672;47.638;19.026;2023-04-20T21:43:17;7.33;;;3.90;;
42760;SDS011;31672;47.638;19.026;2023-04-20T21:48:20;8.87;;;3.90;;
42760;SDS011;31672;47.638;19.026;2023-04-20T21:53:24;9.40;;;3.87;;
42760;SDS011;31672;47.638;19.026;2023-04-20T21:58:27;8.00;;;3.33;;
42760;SDS011;31672;47.638;19.026;2023-04-20T22:03:31;5.60;;;3.10;;
42760;SDS011;31672;47.638;19.026;2023-04-20T22:08:37;6.80;;;3.27;;
42760;SDS011;31672;47.638;19.026;2023-04-20T22:13:41;8.20;;;3.10;;
42760;SDS011;31672;47.638;19.026;2023-04-20T22:18:45;7.20;;;2.77;;
42760;SDS011;31672;47.638;19.026;2023-04-20T22:23:49;9.80;;;3.13;;
42760;SDS011;31672;47.638;19.026;2023-04-20T22:28:52;6.73;;;3.13;;
42760;SDS011;31672;47.638;19.026;2023-04-20T22:33:54;9.13;;;3.43;;
42760;SDS011;31672;47.638;19.026;2023-04-20T22:38:57;6.07;;;3.23;;
42760;SDS011;31672;47.638;19.026;2023-04-20T22:44:00;9.93;;;3.83;;
42760;SDS011;31672;47.638;19.026;2023-04-20T22:49:05;8.23;;;2.63;;
42760;SDS011;31672;47.638;19.026;2023-04-20T22:54:08;5.47;;;2.87;;
42760;SDS011;31672;47.638;19.026;2023-04-20T22:59:11;6.87;;;3.40;;
42760;SDS011;31672;47.638;19.026;2023-04-20T23:04:14;5.20;;;3.50;;
42760;SDS011;31672;47.638;19.026;2023-04-20T23:09:17;6.57;;;3.03;;
42760;SDS011;31672;47.638;19.026;2023-04-20T23:14:22;5.27;;;3.00;;
42760;SDS011;31672;47.638;19.026;2023-04-20T23:19:25;4.87;;;2.60;;
42760;SDS011;31672;47.638;19.026;2023-04-20T23:24:29;8.40;;;3.67;;
42760;SDS011;31672;47.638;19.026;2023-04-20T23:29:32;5.73;;;3.03;;
42760;SDS011;31672;47.638;19.026;2023-04-20T23:34:35;11.23;;;2.97;;
42760;SDS011;31672;47.638;19.026;2023-04-20T23:39:38;6.70;;;2.90;;
42760;SDS011;31672;47.638;19.026;2023-04-20T23:44:41;4.77;;;2.73;;
42760;SDS011;31672;47.638;19.026;2023-04-20T23:49:45;8.93;;;3.43;;
42760;SDS011;31672;47.638;19.026;2023-04-20T23:54:48;5.07;;;2.70;;
42760;SDS011;31672;47.638;19.026;2023-04-20T23:59:51;5.83;;;2.50;;
